createdAt,value
2019-04-10T00:01:29.884Z,42.67
2019-04-10T00:03:59.253Z,40.03
2019-04-10T00:06:29.853Z,40.97
2019-04-10T00:08:59.449Z,35.53
2019-04-10T00:11:29.042Z,35.57
2019-04-10T00:13:58.759Z,39.60
2019-04-10T00:16:28.039Z,36.60
2019-04-10T00:18:58.154Z,36.23
2019-04-10T00:21:27.434Z,37.60
2019-04-10T00:23:57.689Z,31.80
2019-04-10T00:26:27.863Z,34.67
2019-04-10T00:28:58.067Z,35.30
2019-04-10T00:31:27.662Z,38.03
2019-04-10T00:33:57.062Z,37.87
2019-04-10T00:36:26.853Z,39.20
2019-04-10T00:38:56.384Z,35.77
2019-04-10T00:41:25.661Z,33.77
2019-04-10T00:43:55.234Z,30.90
2019-04-10T00:46:24.897Z,30.90
2019-04-10T00:48:54.538Z,31.93
2019-04-10T00:51:24.111Z,33.03
2019-04-10T00:53:53.903Z,35.90
2019-04-10T00:56:24.181Z,39.30
2019-04-10T00:58:53.960Z,32.17
2019-04-10T01:01:23.678Z,33.30
2019-04-10T01:03:53.901Z,40.87
2019-04-10T01:06:24.101Z,41.13
2019-04-10T01:08:53.513Z,41.73
2019-04-10T01:11:23.184Z,41.70
2019-04-10T01:13:53.598Z,51.57
2019-04-10T01:16:23.184Z,45.70
2019-04-10T01:18:53.247Z,50.03
2019-04-10T01:21:22.552Z,53.33
2019-04-10T01:23:53.135Z,58.90
2019-04-10T01:26:23.244Z,55.93
2019-04-10T01:28:54.077Z,67.87
2019-04-10T01:31:23.773Z,60.53
2019-04-10T01:33:53.383Z,73.93
2019-04-10T01:36:22.812Z,76.33
2019-04-10T01:38:52.122Z,70.27
2019-04-10T01:41:21.406Z,67.70
2019-04-10T01:43:51.153Z,76.20
2019-04-10T01:46:20.991Z,83.77
2019-04-10T01:48:51.296Z,82.53
2019-04-10T01:51:21.374Z,82.37
2019-04-10T01:53:50.975Z,86.50
2019-04-10T01:56:25.920Z,87.20
2019-04-10T01:58:52.030Z,100.00
2019-04-10T02:01:26.219Z,94.97
2019-04-10T02:03:55.845Z,93.83
2019-04-10T02:06:25.454Z,91.07
2019-04-10T02:08:54.970Z,97.33
2019-04-10T02:11:24.249Z,92.00
2019-04-10T02:13:54.014Z,99.00
2019-04-10T02:16:24.521Z,101.10
2019-04-10T02:18:55.031Z,107.57
2019-04-10T02:21:25.397Z,102.23
2019-04-10T02:23:54.767Z,101.53
2019-04-10T02:26:24.058Z,107.67
2019-04-10T02:28:53.453Z,108.00
2019-04-10T02:31:24.147Z,99.80
2019-04-10T02:33:53.835Z,104.70
2019-04-10T02:36:23.541Z,100.30
2019-04-10T02:39:05.654Z,100.70
2019-04-10T02:41:23.939Z,99.20
2019-04-10T02:43:53.765Z,88.57
2019-04-10T02:46:23.179Z,89.93
2019-04-10T02:48:54.116Z,91.67
2019-04-10T02:51:25.075Z,95.57
2019-04-10T02:53:56.084Z,91.53
2019-04-10T02:56:25.753Z,95.53
2019-04-10T02:58:56.667Z,86.87
2019-04-10T03:01:27.277Z,90.17
2019-04-10T03:03:57.093Z,93.10
2019-04-10T03:06:27.326Z,85.60
2019-04-10T03:09:10.318Z,90.37
2019-04-10T03:11:28.045Z,84.03
2019-04-10T03:13:59.084Z,88.43
2019-04-10T03:16:29.119Z,90.97
2019-04-10T03:18:58.418Z,83.80
2019-04-10T03:21:27.717Z,91.50
2019-04-10T03:23:57.977Z,87.80
2019-04-10T03:26:27.903Z,86.77
2019-04-10T03:28:57.753Z,85.13
2019-04-10T03:31:27.863Z,88.17
2019-04-10T03:34:08.515Z,90.13
2019-04-10T03:36:38.554Z,84.00
2019-04-10T03:39:10.559Z,84.47
2019-04-10T03:41:40.224Z,87.33
2019-04-10T03:44:10.270Z,85.50
2019-04-10T03:46:40.250Z,87.27
2019-04-10T03:49:09.771Z,80.30
2019-04-10T03:51:39.049Z,88.17
2019-04-10T03:54:09.064Z,83.07
2019-04-10T03:56:38.488Z,85.40
2019-04-10T03:59:08.378Z,85.20
2019-04-10T04:01:38.820Z,82.27
2019-04-10T04:04:09.095Z,84.40
2019-04-10T04:06:39.754Z,81.70
2019-04-10T04:09:11.651Z,80.23
2019-04-10T04:11:40.455Z,85.97
2019-04-10T04:14:10.375Z,75.00
2019-04-10T04:16:39.892Z,88.10
2019-04-10T04:19:10.129Z,94.93
2019-04-10T04:21:39.766Z,86.77
2019-04-10T04:24:09.422Z,88.90
2019-04-10T04:26:39.319Z,78.83
2019-04-10T04:29:09.657Z,93.83
2019-04-10T04:31:40.024Z,84.33
2019-04-10T04:34:10.014Z,82.70
2019-04-10T04:36:40.803Z,85.07
2019-04-10T04:39:21.182Z,88.23
2019-04-10T04:41:42.139Z,82.73
2019-04-10T04:44:12.363Z,90.93
2019-04-10T04:46:42.943Z,85.73
2019-04-10T04:49:13.665Z,83.63
2019-04-10T04:51:43.763Z,84.60
2019-04-10T04:54:13.287Z,84.03
2019-04-10T04:56:42.568Z,86.23
2019-04-10T04:59:12.137Z,94.50
2019-04-10T05:01:42.506Z,82.97
2019-04-10T05:04:11.784Z,89.27
2019-04-10T05:06:41.767Z,85.87
2019-04-10T05:09:11.317Z,87.17
2019-04-10T05:11:40.730Z,94.13
2019-04-10T05:14:11.037Z,93.77
2019-04-10T05:16:41.573Z,92.00
2019-04-10T05:19:10.945Z,91.70
2019-04-10T05:21:40.239Z,86.73
2019-04-10T05:24:09.548Z,86.90
2019-04-10T05:26:38.816Z,88.87
2019-04-10T05:29:08.970Z,76.57
2019-04-10T05:31:38.515Z,78.10
2019-04-10T05:34:09.290Z,94.20
2019-04-10T05:36:38.626Z,77.33
2019-04-10T05:39:08.643Z,86.20
2019-04-10T05:41:37.942Z,73.73
2019-04-10T05:44:07.514Z,78.23
2019-04-10T05:46:36.842Z,75.23
2019-04-10T05:49:06.759Z,77.10
2019-04-10T05:51:37.423Z,77.83
2019-04-10T05:54:07.062Z,77.73
2019-04-10T05:56:36.484Z,71.57
2019-04-10T05:59:08.461Z,65.70
2019-04-10T06:01:39.742Z,69.10
2019-04-10T06:04:09.200Z,65.83
2019-04-10T06:06:38.795Z,68.33
2019-04-10T06:09:09.629Z,77.73
2019-04-10T06:11:39.462Z,69.50
2019-04-10T06:14:10.165Z,62.87
2019-04-10T06:16:40.488Z,68.83
2019-04-10T06:19:09.797Z,64.97
2019-04-10T06:21:39.739Z,73.50
2019-04-10T06:24:09.899Z,71.07
2019-04-10T06:26:39.541Z,61.70
2019-04-10T06:29:08.871Z,66.07
2019-04-10T06:31:39.029Z,68.83
2019-04-10T06:34:08.912Z,63.73
2019-04-10T06:36:38.271Z,66.10
2019-04-10T06:39:08.880Z,61.20
2019-04-10T06:41:39.021Z,58.93
2019-04-10T06:44:08.341Z,65.67
2019-04-10T06:46:39.334Z,58.40
2019-04-10T06:49:09.289Z,68.23
2019-04-10T06:51:38.616Z,62.63
2019-04-10T06:54:10.992Z,59.47
2019-04-10T06:56:38.903Z,57.90
2019-04-10T06:59:08.712Z,53.87
2019-04-10T07:01:44.323Z,58.80
2019-04-10T07:04:09.941Z,54.70
2019-04-10T07:06:54.887Z,56.70
2019-04-10T07:09:11.991Z,56.93
2019-04-10T07:11:42.638Z,59.87
2019-04-10T07:14:14.323Z,54.53
2019-04-10T07:16:44.255Z,55.53
2019-04-10T07:19:13.925Z,57.90
2019-04-10T07:21:43.606Z,58.77
2019-04-10T07:24:15.033Z,56.93
2019-04-10T07:26:46.579Z,53.07
2019-04-10T07:29:18.733Z,55.73
2019-04-10T07:31:46.661Z,54.97
2019-04-10T07:34:19.981Z,51.57
2019-04-10T07:36:47.038Z,52.70
2019-04-10T07:39:17.345Z,52.73
2019-04-10T07:41:47.327Z,50.77
2019-04-10T07:44:16.920Z,46.10
2019-04-10T07:46:46.628Z,43.40
2019-04-10T07:49:18.294Z,47.37
2019-04-10T07:51:49.035Z,48.47
2019-04-10T07:54:21.254Z,51.40
2019-04-10T07:56:49.617Z,43.70
2019-04-10T07:59:18.894Z,42.73
2019-04-10T08:01:48.183Z,53.53
2019-04-10T08:04:18.242Z,51.00
2019-04-10T08:06:47.709Z,46.13
2019-04-10T08:09:17.068Z,55.97
2019-04-10T08:11:46.860Z,50.40
2019-04-10T08:14:16.858Z,43.53
2019-04-10T08:16:46.169Z,44.43
2019-04-10T08:19:16.448Z,43.73
2019-04-10T08:21:46.458Z,52.37
2019-04-10T08:24:15.898Z,47.83
2019-04-10T08:26:45.203Z,51.03
2019-04-10T08:29:14.460Z,48.50
2019-04-10T08:31:44.248Z,46.43
2019-04-10T08:34:13.610Z,46.70
2019-04-10T08:36:43.635Z,44.03
2019-04-10T08:39:17.297Z,49.73
2019-04-10T08:41:43.927Z,47.00
2019-04-10T08:44:13.569Z,44.07
2019-04-10T08:46:42.862Z,43.23
2019-04-10T08:49:12.221Z,45.77
2019-04-10T08:51:41.626Z,49.03
2019-04-10T08:54:12.001Z,46.10
2019-04-10T08:56:41.335Z,43.80
2019-04-10T08:59:11.719Z,44.83
2019-04-10T09:01:41.759Z,53.97
2019-04-10T09:04:11.058Z,45.10
2019-04-10T09:06:40.334Z,44.77
2019-04-10T09:09:09.818Z,47.87
2019-04-10T09:11:39.039Z,42.47
2019-04-10T09:14:08.648Z,46.17
2019-04-10T09:16:38.561Z,47.20
2019-04-10T09:19:07.886Z,43.97
2019-04-10T09:21:37.167Z,42.13
2019-04-10T09:24:06.454Z,45.00
2019-04-10T09:26:36.179Z,47.77
2019-04-10T09:29:06.624Z,46.90
2019-04-10T09:31:36.047Z,42.53
2019-04-10T09:34:05.906Z,40.20
2019-04-10T09:36:35.517Z,39.13
2019-04-10T09:39:07.418Z,41.73
2019-04-10T09:41:36.630Z,46.10
2019-04-10T09:44:06.632Z,44.20
2019-04-10T09:46:35.943Z,42.87
2019-04-10T09:49:05.569Z,41.53
2019-04-10T09:51:36.166Z,40.60
2019-04-10T09:54:05.649Z,41.70
2019-04-10T09:56:34.934Z,38.80
2019-04-10T09:59:05.364Z,44.50
2019-04-10T10:01:35.579Z,42.83
2019-04-10T10:04:05.050Z,40.40
2019-04-10T10:06:36.543Z,41.80
2019-04-10T10:09:08.389Z,44.07
2019-04-10T10:11:38.618Z,46.37
2019-04-10T10:14:08.265Z,43.20
2019-04-10T10:16:37.590Z,42.43
2019-04-10T10:19:07.850Z,42.97
2019-04-10T10:21:37.235Z,41.57
2019-04-10T10:24:06.637Z,40.57
2019-04-10T10:26:36.496Z,45.03
2019-04-10T10:29:05.901Z,43.00
2019-04-10T10:31:36.060Z,37.77
2019-04-10T10:34:06.057Z,42.60
2019-04-10T10:36:41.093Z,42.47
2019-04-10T10:39:13.080Z,39.00
2019-04-10T10:41:42.645Z,43.80
2019-04-10T10:44:13.045Z,42.33
2019-04-10T10:46:42.358Z,41.00
2019-04-10T10:49:12.523Z,39.63
2019-04-10T10:51:42.598Z,39.30
2019-04-10T10:54:12.607Z,42.07
2019-04-10T10:56:42.618Z,43.10
2019-04-10T10:59:11.994Z,40.47
2019-04-10T11:01:42.154Z,42.23
2019-04-10T11:04:12.943Z,37.60
2019-04-10T11:09:15.908Z,37.20
2019-04-10T11:11:45.476Z,38.70
2019-04-10T11:14:15.104Z,40.90
2019-04-10T11:16:45.498Z,39.40
2019-04-10T11:19:15.371Z,38.47
2019-04-10T11:21:45.107Z,37.50
2019-04-10T11:24:15.034Z,41.80
2019-04-10T11:26:44.581Z,36.77
2019-04-10T11:29:14.378Z,39.50
2019-04-10T11:31:45.770Z,40.30
2019-04-10T11:34:16.582Z,36.03
2019-04-10T11:36:46.203Z,39.07
2019-04-10T11:39:22.587Z,40.30
2019-04-10T11:41:49.956Z,38.97
2019-04-10T11:44:20.310Z,33.77
2019-04-10T11:46:49.473Z,38.73
2019-04-10T11:49:20.141Z,36.80
2019-04-10T11:51:52.980Z,40.03
2019-04-10T11:54:26.418Z,39.33
2019-04-10T11:56:56.131Z,39.70
2019-04-10T11:59:26.208Z,38.30
2019-04-10T12:02:01.002Z,37.83
2019-04-10T12:04:29.538Z,35.93
2019-04-10T12:07:00.188Z,34.60
2019-04-10T12:10:49.517Z,32.47
2019-04-10T12:12:00.178Z,32.57
2019-04-10T12:14:29.984Z,32.30
2019-04-10T12:16:59.567Z,30.73
2019-04-10T12:19:29.094Z,32.13
2019-04-10T12:21:58.681Z,31.30
2019-04-10T12:24:28.209Z,31.30
2019-04-10T12:26:58.337Z,33.07
2019-04-10T12:29:28.965Z,31.63
2019-04-10T12:31:58.611Z,33.73
2019-04-10T12:34:28.534Z,32.47
2019-04-10T12:36:58.751Z,29.13
2019-04-10T12:39:28.061Z,32.20
2019-04-10T12:41:57.555Z,32.33
2019-04-10T12:44:26.871Z,28.00
2019-04-10T12:46:56.144Z,29.33
2019-04-10T12:49:25.600Z,31.80
2019-04-10T12:51:54.889Z,29.43
2019-04-10T12:54:24.497Z,29.20
2019-04-10T12:56:54.729Z,29.23
2019-04-10T12:59:24.037Z,29.00
2019-04-10T13:01:54.099Z,27.00
2019-04-10T13:04:24.720Z,25.57
2019-04-10T13:06:54.817Z,26.33
2019-04-10T13:09:24.282Z,26.93
2019-04-10T13:11:53.557Z,29.50
2019-04-10T13:14:22.835Z,28.30
2019-04-10T13:16:52.234Z,28.53
2019-04-10T13:19:21.499Z,30.23
2019-04-10T13:21:51.670Z,29.93
2019-04-10T13:24:21.532Z,26.40
2019-04-10T13:26:50.975Z,29.03
2019-04-10T13:29:21.171Z,24.50
2019-04-10T13:31:51.608Z,27.90
2019-04-10T13:34:21.520Z,26.53
2019-04-10T13:36:51.606Z,24.80
2019-04-10T13:39:22.405Z,24.37
2019-04-10T13:41:52.555Z,24.10
2019-04-10T13:44:22.412Z,24.13
2019-04-10T13:46:51.949Z,23.73
2019-04-10T13:49:21.982Z,25.20
2019-04-10T13:51:51.875Z,23.40
2019-04-10T13:54:21.205Z,25.70
2019-04-10T13:56:50.945Z,24.50
2019-04-10T13:59:20.753Z,23.70
2019-04-10T14:01:50.567Z,23.60
2019-04-10T14:04:20.086Z,23.70
2019-04-10T14:06:49.678Z,23.40
2019-04-10T14:09:34.358Z,24.23
2019-04-10T14:11:51.297Z,22.87
2019-04-10T14:14:20.965Z,22.77
2019-04-10T14:16:50.569Z,20.97
2019-04-10T14:19:19.853Z,21.10
2019-04-10T14:21:49.245Z,23.30
2019-04-10T14:24:19.978Z,22.63
2019-04-10T14:27:06.202Z,20.77
2019-04-10T14:29:35.730Z,22.87
2019-04-10T14:32:08.915Z,21.30
2019-04-10T14:34:38.811Z,20.30
2019-04-10T14:37:09.783Z,20.17
2019-04-10T14:39:39.581Z,22.73
2019-04-10T14:42:10.581Z,20.53
2019-04-10T14:44:41.033Z,20.13
2019-04-10T14:47:11.425Z,19.20
2019-04-10T14:49:41.488Z,22.57
2019-04-10T14:52:10.808Z,20.20
2019-04-10T14:54:40.053Z,19.60
2019-04-10T14:57:10.523Z,20.30
2019-04-10T14:59:40.098Z,20.50
2019-04-10T15:02:10.550Z,22.27
2019-04-10T15:04:39.936Z,20.63
2019-04-10T15:07:10.163Z,19.23
2019-04-10T15:09:39.500Z,21.30
2019-04-10T15:12:10.050Z,20.40
2019-04-10T15:14:39.632Z,21.40
2019-04-10T15:17:09.452Z,21.10
2019-04-10T15:19:39.075Z,23.83
2019-04-10T15:22:09.476Z,20.63
2019-04-10T15:24:39.730Z,21.07
2019-04-10T15:27:09.282Z,20.77
2019-04-10T15:29:38.677Z,21.17
2019-04-10T15:32:08.455Z,20.80
2019-04-10T15:34:37.812Z,22.50
2019-04-10T15:37:07.099Z,22.40
2019-04-10T15:39:39.891Z,21.67
2019-04-10T15:42:07.905Z,21.93
2019-04-10T15:44:38.284Z,20.40
2019-04-10T15:47:16.200Z,20.93
2019-04-10T15:49:39.402Z,20.93
2019-04-10T15:52:08.700Z,22.33
2019-04-10T15:54:38.242Z,21.37
2019-04-10T15:57:08.675Z,23.73
2019-04-10T15:59:38.638Z,21.63
2019-04-10T16:02:08.107Z,22.97
2019-04-10T16:04:37.389Z,21.73
2019-04-10T16:07:06.998Z,24.10
2019-04-10T16:09:45.432Z,23.00
2019-04-10T16:12:11.861Z,21.33
2019-04-10T16:14:41.144Z,21.03
2019-04-10T16:17:13.112Z,20.97
2019-04-10T16:19:51.216Z,23.73
2019-04-10T16:22:23.403Z,24.13
2019-04-10T16:24:53.373Z,22.90
2019-04-10T16:27:22.902Z,21.97
2019-04-10T16:29:53.107Z,20.97
2019-04-10T16:32:24.429Z,28.27
2019-04-10T16:34:54.641Z,24.30
2019-04-10T16:37:24.325Z,23.23
2019-04-10T16:40:01.729Z,24.87
2019-04-10T16:42:25.133Z,23.63
2019-04-10T16:44:54.406Z,23.97
2019-04-10T16:47:23.688Z,22.43
2019-04-10T16:49:53.265Z,25.50
2019-04-10T16:52:23.130Z,23.37
2019-04-10T16:54:53.435Z,23.80
2019-04-10T16:57:23.114Z,28.07
2019-04-10T16:59:52.903Z,25.00
2019-04-10T17:02:22.530Z,27.73
2019-04-10T17:04:52.216Z,26.87
2019-04-10T17:07:21.762Z,29.63
2019-04-10T17:09:51.572Z,26.13
2019-04-10T17:12:21.946Z,28.27
2019-04-10T17:14:51.599Z,25.97
2019-04-10T17:17:22.120Z,28.67
2019-04-10T17:19:55.506Z,25.50
2019-04-10T17:22:30.877Z,24.97
2019-04-10T17:24:54.020Z,25.00
2019-04-10T17:27:23.654Z,28.57
2019-04-10T17:29:53.475Z,26.30
2019-04-10T17:32:24.484Z,26.93
2019-04-10T17:34:54.896Z,26.53
2019-04-10T17:37:25.502Z,27.67
2019-04-10T17:39:55.667Z,26.93
2019-04-10T17:42:25.373Z,30.07
2019-04-10T17:44:56.186Z,29.03
2019-04-10T17:47:26.958Z,27.80
2019-04-10T17:49:56.320Z,29.20
2019-04-10T17:52:27.027Z,25.67
2019-04-10T17:54:56.428Z,30.27
2019-04-10T17:57:36.302Z,33.53
2019-04-10T17:59:56.701Z,27.30
2019-04-10T18:02:26.358Z,26.40
2019-04-10T18:04:56.051Z,27.00
2019-04-10T18:07:25.437Z,29.10
2019-04-10T18:09:54.722Z,25.70
2019-04-10T18:12:24.352Z,26.17
2019-04-10T18:14:53.960Z,26.20
2019-04-10T18:17:24.857Z,25.57
2019-04-10T18:19:54.663Z,24.10
2019-04-10T18:22:24.711Z,25.80
2019-04-10T18:24:54.339Z,28.30
2019-04-10T18:27:24.599Z,28.63
2019-04-10T18:29:55.189Z,27.40
2019-04-10T18:32:25.508Z,29.60
2019-04-10T18:34:54.860Z,28.10
2019-04-10T18:37:25.555Z,28.07
2019-04-10T18:39:55.008Z,27.07
2019-04-10T18:42:24.712Z,28.23
2019-04-10T18:44:53.998Z,28.50
2019-04-10T18:47:23.280Z,26.60
2019-04-10T18:49:52.568Z,28.70
2019-04-10T18:52:23.347Z,27.47
2019-04-10T18:54:53.998Z,28.97
2019-04-10T18:57:24.049Z,27.83
2019-04-10T19:00:15.249Z,27.80
2019-04-10T19:02:45.818Z,29.87
2019-04-10T19:05:20.105Z,28.97
2019-04-10T19:07:50.251Z,25.90
2019-04-10T19:10:20.056Z,30.23
2019-04-10T19:12:50.719Z,27.03
2019-04-10T19:15:20.430Z,27.13
2019-04-10T19:17:50.945Z,27.83
2019-04-10T19:20:20.556Z,24.37
2019-04-10T19:22:50.669Z,27.50
2019-04-10T19:25:20.989Z,31.77
2019-04-10T19:27:50.705Z,27.20
2019-04-10T19:30:37.385Z,27.53
2019-04-10T19:33:07.992Z,30.07
2019-04-10T19:35:37.622Z,29.33
2019-04-10T19:38:07.356Z,26.87
2019-04-10T19:40:38.686Z,25.13
2019-04-10T19:43:08.415Z,27.40
2019-04-10T19:45:38.001Z,26.73
2019-04-10T19:48:08.710Z,29.13
2019-04-10T19:50:38.441Z,28.30
2019-04-10T19:53:08.999Z,26.50
2019-04-10T19:55:38.623Z,24.37
2019-04-10T19:58:08.082Z,26.33
2019-04-10T20:00:38.741Z,27.73
2019-04-10T20:03:08.319Z,29.43
2019-04-10T20:05:37.927Z,26.33
2019-04-10T20:08:07.639Z,27.17
2019-04-10T20:10:37.419Z,34.13
2019-04-10T20:13:06.972Z,29.03
2019-04-10T20:15:36.361Z,29.13
2019-04-10T20:18:05.652Z,26.30
2019-04-10T20:20:37.487Z,28.03
2019-04-10T20:23:06.953Z,24.40
2019-04-10T20:25:36.728Z,27.27
2019-04-10T20:28:06.868Z,24.60
2019-04-10T20:30:37.021Z,23.57
2019-04-10T20:33:06.797Z,25.40
2019-04-10T20:35:36.395Z,26.07
2019-04-10T20:38:07.107Z,27.07
2019-04-10T20:40:36.741Z,21.90
2019-04-10T20:43:06.881Z,20.83
2019-04-10T20:45:37.948Z,28.23
2019-04-10T20:48:08.557Z,27.47
2019-04-10T20:50:37.860Z,26.53
2019-04-10T20:53:07.515Z,22.67
2019-04-10T20:55:37.651Z,21.73
2019-04-10T20:58:07.030Z,23.13
2019-04-10T21:00:43.041Z,22.83
2019-04-10T21:03:13.517Z,21.90
2019-04-10T21:05:42.922Z,22.10
2019-04-10T21:08:13.645Z,20.67
2019-04-10T21:10:43.016Z,19.67
2019-04-10T21:13:12.972Z,20.17
2019-04-10T21:15:42.367Z,19.23
2019-04-10T21:18:13.118Z,17.73
2019-04-10T21:20:43.200Z,17.93
2019-04-10T21:23:13.133Z,17.47
2019-04-10T21:25:43.541Z,16.03
2019-04-10T21:28:14.094Z,18.87
2019-04-10T21:30:48.723Z,17.17
2019-04-10T21:33:23.076Z,15.07
2019-04-10T21:35:52.607Z,16.30
2019-04-10T21:38:21.974Z,18.37
2019-04-10T21:40:51.787Z,19.20
2019-04-10T21:43:21.762Z,16.03
2019-04-10T21:45:52.334Z,18.00
2019-04-10T21:48:22.408Z,16.33
2019-04-10T21:50:51.827Z,15.97
2019-04-10T21:53:21.945Z,15.90
2019-04-10T21:55:51.585Z,18.30
2019-04-10T21:58:21.996Z,16.30
2019-04-10T22:00:53.268Z,16.00
2019-04-10T22:03:23.284Z,15.20
2019-04-10T22:05:55.302Z,17.70
2019-04-10T22:08:42.468Z,17.30
2019-04-10T22:11:12.814Z,15.60
2019-04-10T22:13:42.378Z,15.33
2019-04-10T22:16:13.627Z,15.63
2019-04-10T22:18:42.850Z,16.40
2019-04-10T22:21:12.554Z,15.43
2019-04-10T22:23:42.718Z,14.53
2019-04-10T22:26:12.025Z,14.53
2019-04-10T22:28:41.382Z,13.90
2019-04-10T22:31:11.668Z,14.07
2019-04-10T22:33:41.018Z,14.33
2019-04-10T22:36:10.838Z,12.30
2019-04-10T22:38:40.173Z,12.63
2019-04-10T22:41:22.937Z,12.77
2019-04-10T22:43:41.068Z,12.77
2019-04-10T22:46:10.948Z,11.90
2019-04-10T22:48:41.636Z,13.67
2019-04-10T22:51:11.283Z,12.87
2019-04-10T22:53:41.691Z,15.20
2019-04-10T22:56:11.355Z,11.60
2019-04-10T22:58:42.450Z,14.13
2019-04-10T23:01:13.147Z,11.27
2019-04-10T23:03:43.180Z,12.40
2019-04-10T23:06:13.282Z,12.63
2019-04-10T23:08:42.661Z,17.13
2019-04-10T23:11:13.109Z,12.73
2019-04-10T23:13:42.555Z,13.90
2019-04-10T23:16:15.377Z,14.07
2019-04-10T23:18:42.939Z,12.50
2019-04-10T23:21:12.374Z,13.20
2019-04-10T23:23:41.569Z,12.43
2019-04-10T23:26:11.103Z,13.70
2019-04-10T23:28:40.503Z,13.70
2019-04-10T23:31:09.784Z,12.87
2019-04-10T23:33:39.911Z,12.50
2019-04-10T23:36:09.712Z,10.97
2019-04-10T23:38:39.603Z,11.43
2019-04-10T23:41:09.449Z,12.40
2019-04-10T23:43:39.804Z,11.37
2019-04-10T23:46:11.219Z,12.93
2019-04-10T23:48:41.215Z,11.53
2019-04-10T23:51:10.652Z,11.50
2019-04-10T23:53:40.453Z,11.67
2019-04-10T23:56:09.770Z,12.63
2019-04-10T23:58:40.233Z,13.50
